Racecast

Kelli Vierra

RPM Legacy (CA) · 13-14 · PAC · Compare head to head

Athlete rating 130.4 2014 TF season
Best race 135.0 TF
Races 30
Seasons 2 2013 — 2014

RankedNation #769·CA #78·Team #6 ?

Rating scale ?
Speed rating — all races

Track & Field

TF speed rating

2014 TF 127.4

RPM Legacy (CA) · Grade 13-14

Date Meet Event Result Place Rating Difficulty PR/SR Flags
2014-06-20 USATF Pacific Assoc. Junior Olympics (Top 8) 800m 2:45.65 23rd · 3rd on team 121.1 -0.031
2014-06-20 USATF Pacific Assoc. Junior Olympics (Top 8) 3000m 12:05.18 11th · 1st on team 124.2 -0.031
2014-05-31 Pacific Association Championships (PAC) 1500m 5:23.95 21st · 1st on team 130.1 -0.024 ★PR SR
2014-05-31 Pacific Association Championships (PAC) 800m 2:34.78 13th · 2nd on team 130.7 -0.024 ★PR SR
2014-05-31 Pacific Association Championships (PAC) 3000m 11:13.78 7th · 1st on team 135.0 -0.024 ★PR ★R SR RSR
2014-05-18 3M Invitational 3000m 11:25.53 5th · 1st on team 132.1 -0.028 PR R SR RSR
2014-05-18 3M Invitational 400m 1:08.34 11th · 3rd on team -0.028 ★PR SR
2014-05-18 3M Invitational 800m 2:38.41 9th · 2nd on team 127.2 -0.028
2014-04-26 Revolution Express TC 3000m 12:02.72 4th · 1st on team 124.3 -0.024
2014-04-26 Revolution Express TC 800m 2:36.59 2nd · 1st on team 128.6 -0.024 PR SR
2014-04-26 Revolution Express TC 400m 1:11.04 29th · 5th on team -0.024
2014-04-05 Sacramento Speed Showcase 800m 2:45.47 16th · 3rd on team 120.9 -0.033
2014-04-05 Sacramento Speed Showcase 3000m 11:39.6 4th · 1st on team 128.4 -0.033 PR SR
2014-04-05 Sacramento Speed Showcase 400m 1:11.3 35th · 3rd on team -0.033
2014-03-22 RPM 1500m 5:30.5 9th · 1st on team 128.6 -0.012 PR R SR RSR
2014-03-22 RPM 400m 1:10.04 21st · 2nd on team -0.012 SR
2014-03-22 RPM 800m 2:42.8 9th · 2nd on team 125.4 -0.012 SR

2013 TF 112.1

RPM Legacy (CA) · Grade 11-12

Date Meet Event Result Place Rating Difficulty PR/SR Flags
2013-06-21 Pacific Association Junior Olympics (3-day) 800m 2:41.26 15th · 2nd on team 113.0 -0.035 PR SR
2013-06-21 Pacific Association Junior Olympics (3-day) 400m 1:08.81 25th · 6th on team -0.035 PR SR
2013-06-08 Pacific Association Youth Championship (PAC) - 2-day meet 400m 1:11.39 17th · 6th on team -0.024 PR SR
2013-06-08 Pacific Association Youth Championship (PAC) - 2-day meet 800m 2:43.91 10th · 2nd on team 112.5 -0.024
2013-05-18 3M Track Club 400m 1:12.26 20th · 4th on team -0.028 PR SR
2013-05-18 3M Track Club 800m 2:42.86 7th · 1st on team 112.8 -0.028
2013-04-27 Revolution Express Track Club 800m 2:41.39 6th · 1st on team 114.3 -0.024 PR R SR RSR
2013-04-27 Revolution Express Track Club 200m 30.81 15th · 3rd on team -0.024 ★PR SR
2013-04-27 Revolution Express Track Club 400m 1:12.81 27th · 5th on team -0.024 PR SR
2013-04-20 Shor / Sheppard Classic 200m 33.58 36th · 6th on team -0.023
2013-04-06 Sacramento Speed Showcase 800m 2:50.05 14th · 2nd on team 107.7 -0.031 PR R SR RSR
2013-04-06 Sacramento Speed Showcase 200m 33.55 28th · 5th on team -0.031 PR SR
2013-04-06 Sacramento Speed Showcase 400m 1:12.96 26th · 4th on team -0.031 PR SR